首页
METAR-TAF:

METAR-TAF

机场 :

金奈国际机场

金奈, 印度

纬度: 13-00N, 经度: 080-11E, 海拔: 10米

当前天气观测

该预报发布于29分钟前的04:00 UTC
风速6节,风向
温度 31°C
湿度 79%
气压 1014 hPa
能見度: 6000
少量云层高于1800英尺
散云层高于2500英尺

METAR: VOMM 180400Z 08006KT 6000 FEW018 SCT025 31/27 Q1014 NOSIG

时间: 09:59 (04:29 UTC)

预报

该预报发布于5小时和29分钟前的23:00 UTC
预报有效从18日的 00点(UTC)到 19日的 06点(UTC)
风速2节,风向多变
能見度: 3000
少量云层高于2000英尺
散云层高于8000英尺
轻雾
短暂存在
从 18日的 00点(UTC)到 18日的 03点(UTC)
能見度: 2000
散云层高于2000英尺
少量云层高于2500英尺, 积雨云.
多云层高于8000英尺
成为
从 18日的 03点(UTC)到 18日的 04点(UTC)
风速10节,风向东北
能見度: 5000
成为
从 18日的 21点(UTC)到 18日的 22点(UTC)
风速2节,风向多变
能見度: 3000
轻雾
短暂存在
从 18日的 18点(UTC)到 18日的 24点(UTC)
能見度: 2000
散云层高于2000英尺
少量云层高于2500英尺, 积雨云.
多云层高于8000英尺

TAF: VOMM 172300Z 1800/1906 VRB02KT 3000 BR FEW020 SCT080 TEMPO 1800/1803 2000 -TSRA/RA SCT020 FEW025CB BKN080 BECMG 1803/1804 05010KT 5000 HZ BECMG 1821/1822 VRB02KT 3000 BR TEMPO 1818/1824 2000 -TSRA/RA SCT020 FEW025CB BKN080

超过4000个机场的气象观测和天气预报(METAR&TAF报告)。

可查询的气象台以黄色和红色小点在地图上表示。

将鼠标移到小点上方,可查看气象台名称。

然后点击查看天气观测和预报。

如需切换地图:点击带黑十字的绿色按钮放大地图;点击带横线的绿色按钮缩小地图;或者点击绿色箭头查看邻近地区的地图。


METAR-TAF: